Arvada, CO (80002)

10:25 AM MST on February 09, 2016 (GMT -0700)
Hoyt Ct | | Change Station
CLOSE
Current Station
Personal Weather Station
Location: Arvada, CO
Elevation: 5512 ft
Nearby Weather Stations

Elev 5512 ft 39.82 °N, 105.10 °W | Updated 14 minutes ago

Clear
Clear
50.0 °F
Feels Like 50.0 °F
N
0.0
Wind Variable Wind from ESE

Today
High -- | Low -- °F
--% Chance of Precip.
Yesterday
High -- | Low -- °F
Precip. -- in
Pressure 30.33 in
Visibility 70.0 miles
Clouds Clear
Dew Point 21 °F
Humidity 32%
Rainfall 0.00 in
Snow Depth Not available.
7:00 AM 5:29 PM
New Moon, 2% visible
METAR KBJC 091647Z 10004KT 70SM SKC 08/M04 A3033
Pressure 30.33 in
Visibility 70.0 miles
Clouds Clear
Dew Point 21 °F
Humidity 32%
Rainfall 0.00 in
Snow Depth Not available.
7:00 AM 5:29 PM
New Moon, 2% visible
METAR KBJC 091647Z 10004KT 70SM SKC 08/M04 A3033

10-Day Weather Forecast

Almanac

Astronomy

Feb. 09, 2016 Rise Set
Actual Time
Civil Twilight
Nautical Twilight
Astronomical Twilight
Moon
Length of Visible Light
Length of Day
Tomorrow will be .
, % of the Moon is Illuminated

Today's Extremes

State Highs State Lows

Community

WunderPhotos

Upload Photos

1,891,637 photos uploaded!

WunderBlog® & News

Nearby

Air Quality

  Air Quality AQ Index Pollutant
Not available.

Snow Depth

Station Depth Elevation

Earthquake Activity

City Distance Mag. Time & Date
Minimum magnitude displayed is 2.5.

Coastal Water Temperatures

Place Temperature

Stations

Nearby Weather Stations

Station Location Temp. Windchill Dew Point Humidity Wind Precip. Elev Updated Type
                   

Watches & Warnings

There are currently no watches in effect.